Time;durP1;ratioP1;P1;durP2;ratioP2;P2;SDS_P1;SDS_P2;PMS_P1;PMS_P2;Temp;Humidity;BMP_temperature;BMP_pressure;BME280_temperature;BME280_humidity;BME280_pressure;Samples;Min_cycle;Max_cycle;Signal;HPM_P1;HPM_P2
2022/04/10 00:01:32;;;;;;;1.15;1.08;;;;;;;11.35;58.58;96331.13;6096973;23;19998;-89
2022/04/10 00:03:58;;;;;;;0.10;0.10;;;;;;;11.21;59.09;96331.47;6097403;23;20017;-88
2022/04/10 00:06:26;;;;;;;0.08;0.08;;;;;;;10.98;59.76;96308.47;6097381;23;20113;-89
2022/04/10 00:08:52;;;;;;;2.20;0.85;;;;;;;11.14;60.11;96335.63;6098493;23;20112;-89
2022/04/10 00:11:18;;;;;;;0.00;0.00;;;;;;;11.19;60.32;96338.78;6097833;23;20009;-89
2022/04/10 00:13:44;;;;;;;0.00;0.00;;;;;;;11.21;60.41;96331.47;6098687;23;20008;-88
2022/04/10 00:16:10;;;;;;;0.00;0.00;;;;;;;11.32;60.27;96322.53;6098868;23;20086;-89
2022/04/10 00:18:36;;;;;;;0.00;0.00;;;;;;;11.56;59.97;96333.84;6098665;23;20006;-89
2022/04/10 00:21:04;;;;;;;0.00;0.00;;;;;;;11.56;60.74;96314.25;6099164;23;20009;-89
2022/04/10 00:23:29;;;;;;;0.38;0.38;;;;;;;11.82;62.70;96324.44;6099369;23;20017;-89
2022/04/10 00:25:55;;;;;;;0.32;0.20;;;;;;;11.97;62.22;96324.94;6099154;23;20002;-89
2022/04/10 00:28:20;;;;;;;0.10;0.10;;;;;;;12.06;62.03;96317.94;6098170;23;20017;-89
2022/04/10 00:30:46;;;;;;;0.00;0.00;;;;;;;12.15;63.87;96312.59;6099017;23;20033;-90
2022/04/10 00:33:12;;;;;;;0.10;0.10;;;;;;;12.43;65.05;96330.63;6097862;23;20060;-89
2022/04/10 00:35:37;;;;;;;0.15;0.15;;;;;;;12.53;65.97;96325.31;6098375;23;20442;-89
2022/04/10 00:38:03;;;;;;;0.03;0.03;;;;;;;12.56;65.06;96306.25;6098791;23;20006;-89
2022/04/10 00:40:29;;;;;;;0.00;0.00;;;;;;;12.63;64.66;96309.22;6100832;23;20446;-89
2022/04/10 00:42:54;;;;;;;0.00;0.00;;;;;;;12.67;64.76;96299.94;6102485;23;20025;-88
2022/04/10 00:45:20;;;;;;;0.00;0.00;;;;;;;12.50;64.70;96280.84;6099458;23;20016;-89
2022/04/10 00:47:46;;;;;;;0.00;0.00;;;;;;;12.55;64.92;96284.94;6098138;23;20702;-89
2022/04/10 00:50:16;;;;;;;0.00;0.00;;;;;;;12.58;65.50;96288.16;6098358;23;20493;-89
2022/04/10 00:52:43;;;;;;;0.00;0.00;;;;;;;12.49;63.52;96280.94;6098651;23;20013;-89
2022/04/10 00:55:09;;;;;;;0.55;0.45;;;;;;;12.22;63.32;96281.59;6098464;23;20010;-88
2022/04/10 00:57:35;;;;;;;0.10;0.10;;;;;;;11.95;63.96;96254.56;6097697;23;20026;-88
2022/04/10 01:00:02;;;;;;;0.00;0.00;;;;;;;12.04;63.83;96268.97;6098121;23;20038;-89
2022/04/10 01:02:28;;;;;;;0.00;0.00;;;;;;;12.02;64.19;96270.94;6098530;23;20018;-91
2022/04/10 01:04:53;;;;;;;0.20;0.20;;;;;;;11.79;62.71;96246.16;6098492;23;20091;-90
2022/04/10 01:07:20;;;;;;;0.00;0.00;;;;;;;12.07;63.14;96276.75;6099311;23;20009;-89
2022/04/10 01:09:46;;;;;;;0.00;0.00;;;;;;;12.00;62.05;96260.34;6097652;23;20070;-90
2022/04/10 01:12:12;;;;;;;0.13;0.13;;;;;;;11.97;62.42;96249.91;6098456;23;20006;-88
2022/04/10 01:14:39;;;;;;;0.10;0.10;;;;;;;12.06;62.28;96262.50;6097296;23;20045;-90
2022/04/10 01:17:09;;;;;;;1.52;1.45;;;;;;;12.07;62.37;96248.09;6098590;23;20056;-89
2022/04/10 01:19:38;;;;;;;0.32;0.32;;;;;;;12.12;62.41;96269.16;6098520;23;20041;-89
2022/04/10 01:22:05;;;;;;;0.00;0.00;;;;;;;12.17;62.60;96278.47;6098857;23;20020;-90
2022/04/10 01:24:34;;;;;;;0.00;0.00;;;;;;;12.16;62.67;96282.13;6098889;23;20006;-90
2022/04/10 01:27:02;;;;;;;0.00;0.00;;;;;;;12.03;62.29;96252.03;6098773;23;20117;-90
2022/04/10 01:29:28;;;;;;;0.00;0.00;;;;;;;11.98;62.59;96253.44;6098904;23;20018;-90
2022/04/10 01:31:54;;;;;;;0.00;0.00;;;;;;;11.87;63.24;96243.69;6098466;23;20010;-90
2022/04/10 01:34:20;;;;;;;0.08;0.08;;;;;;;11.83;63.23;96224.34;6098008;23;20013;-90
2022/04/10 01:36:46;;;;;;;0.10;0.10;;;;;;;11.80;63.24;96231.78;6098390;23;20350;-89
2022/04/10 01:39:15;;;;;;;0.00;0.00;;;;;;;11.76;62.92;96222.31;6098878;23;20009;-90
2022/04/10 01:41:41;;;;;;;0.00;0.00;;;;;;;11.88;62.51;96240.84;6098659;23;20041;-90
2022/04/10 01:44:08;;;;;;;0.00;0.00;;;;;;;11.77;62.30;96216.84;6098365;23;20014;-89
2022/04/10 01:46:34;;;;;;;0.25;0.25;;;;;;;11.56;62.94;96201.78;6098335;23;19998;-90
2022/04/10 01:49:00;;;;;;;0.00;0.00;;;;;;;11.70;63.04;96209.47;6097619;23;20089;-90
2022/04/10 01:51:26;;;;;;;0.00;0.00;;;;;;;11.69;63.08;96199.72;6098291;23;20040;-90
2022/04/10 01:53:53;;;;;;;0.00;0.00;;;;;;;11.81;63.47;96226.28;6098069;23;20038;-90
2022/04/10 01:56:19;;;;;;;0.00;0.00;;;;;;;11.71;63.53;96216.53;6098781;23;20089;-90
2022/04/10 01:58:46;;;;;;;0.10;0.10;;;;;;;11.70;64.31;96225.53;6098176;23;20024;-90
2022/04/10 02:01:13;;;;;;;0.10;0.10;;;;;;;11.59;64.68;96222.94;6098088;23;20006;-90
2022/04/10 02:03:39;;;;;;;0.00;0.00;;;;;;;11.66;65.06;96232.97;6098104;23;20063;-90
2022/04/10 02:06:08;;;;;;;0.00;0.00;;;;;;;11.57;65.31;96219.53;6098820;23;20385;-89
2022/04/10 02:08:36;;;;;;;0.05;0.05;;;;;;;11.61;65.25;96218.28;6098207;23;20039;-90
2022/04/10 02:11:16;;;;;;;0.00;0.00;;;;;;;11.50;65.78;96211.19;6098578;23;20295;-91
2022/04/10 02:13:43;;;;;;;0.10;0.10;;;;;;;11.42;66.25;96219.03;6098316;23;20010;-90
2022/04/10 02:16:13;;;;;;;0.00;0.00;;;;;;;11.44;66.63;96227.78;6098022;23;20075;-90
2022/04/10 02:18:38;;;;;;;0.00;0.00;;;;;;;11.46;66.35;96233.84;6098219;23;20036;-90
2022/04/10 02:21:04;;;;;;;0.00;0.00;;;;;;;11.37;67.20;96238.19;6098130;23;20005;-89
2022/04/10 02:23:30;;;;;;;0.20;0.20;;;;;;;11.26;67.81;96232.88;6097472;23;20006;-90
2022/04/10 02:25:56;;;;;;;0.00;0.00;;;;;;;11.08;68.45;96213.03;6098159;23;20465;-90
2022/04/10 02:28:21;;;;;;;0.00;0.00;;;;;;;11.20;68.80;96245.94;6098360;23;19997;-90
2022/04/10 02:30:47;;;;;;;0.00;0.00;;;;;;;11.15;68.67;96248.16;6098370;23;20010;-90
2022/04/10 02:33:12;;;;;;;0.00;0.00;;;;;;;10.94;69.86;96248.16;6097409;23;20006;-90
2022/04/10 02:35:40;;;;;;;0.00;0.00;;;;;;;10.80;70.99;96241.28;6123595;23;20006;-90
2022/04/10 02:38:31;;;;;;;0.00;0.00;;;;;;;10.75;71.71;96253.34;6098330;23;20354;-90
2022/04/10 02:40:57;;;;;;;0.10;0.10;;;;;;;10.65;72.71;96253.25;6097561;23;20036;-89
2022/04/10 02:43:23;;;;;;;0.00;0.00;;;;;;;10.57;73.28;96244.19;6097993;23;20087;-90
2022/04/10 02:45:48;;;;;;;0.08;0.08;;;;;;;10.58;73.19;96238.69;6099013;23;20009;-90
2022/04/10 02:48:14;;;;;;;0.00;0.00;;;;;;;10.51;73.56;96242.88;6098428;23;20040;-90
2022/04/10 02:50:40;;;;;;;0.05;0.05;;;;;;;10.41;73.96;96249.94;6097455;23;20067;-89
2022/04/10 02:53:06;;;;;;;0.05;0.05;;;;;;;10.46;73.90;96260.28;6097413;23;20085;-88
2022/04/10 02:55:32;;;;;;;0.00;0.00;;;;;;;10.36;74.07;96236.13;6097377;23;20002;-89
2022/04/10 02:57:58;;;;;;;0.00;0.00;;;;;;;10.28;75.29;96243.91;6097010;23;20033;-90
2022/04/10 03:00:23;;;;;;;0.00;0.00;;;;;;;10.14;75.85;96234.34;6097485;23;19998;-89
2022/04/10 03:02:49;;;;;;;0.25;0.25;;;;;;;10.18;75.87;96227.75;6098124;23;20006;-89
2022/04/10 03:05:15;;;;;;;0.00;0.00;;;;;;;10.18;76.21;96222.41;6096951;23;20006;-90
2022/04/10 03:07:41;;;;;;;0.00;0.00;;;;;;;10.27;76.51;96224.34;6097731;23;20006;-90
2022/04/10 03:10:07;;;;;;;0.00;0.00;;;;;;;10.24;77.06;96232.59;6097231;23;20093;-90
2022/04/10 03:12:33;;;;;;;0.03;0.03;;;;;;;10.13;77.70;96240.66;6097300;23;20006;-90
2022/04/10 03:14:58;;;;;;;2.33;2.17;;;;;;;9.89;78.18;96210.56;6097182;23;20019;-90
2022/04/10 03:17:24;;;;;;;0.00;0.00;;;;;;;10.16;78.36;96244.91;6098381;23;20037;-89
2022/04/10 03:19:49;;;;;;;8.75;2.40;;;;;;;10.34;78.54;96262.94;6121912;22;19998;-90
2022/04/10 03:22:15;;;;;;;0.00;0.00;;;;;;;10.37;78.54;96274.38;6098075;23;20389;-90
2022/04/10 03:24:41;;;;;;;0.00;0.00;;;;;;;10.28;79.02;96258.13;6098658;23;20092;-89
2022/04/10 03:27:06;;;;;;;0.00;0.00;;;;;;;10.35;79.94;96266.47;6098511;23;20013;-88
2022/04/10 03:29:32;;;;;;;0.75;0.63;;;;;;;10.39;79.68;96261.75;6097034;23;20006;-90
2022/04/10 03:31:57;;;;;;;0.00;0.00;;;;;;;10.40;80.26;96258.94;6098321;23;20014;-89
2022/04/10 03:34:23;;;;;;;0.00;0.00;;;;;;;10.51;79.69;96258.06;6098815;23;20002;-89
2022/04/10 03:36:49;;;;;;;0.35;0.35;;;;;;;10.61;78.21;96277.72;6099254;23;20006;-89
2022/04/10 03:39:14;;;;;;;0.10;0.10;;;;;;;10.58;77.64;96267.28;6098552;23;20339;-89
2022/04/10 03:41:40;;;;;;;0.35;0.35;;;;;;;10.56;77.03;96269.22;6098232;23;20045;-89
2022/04/10 03:44:06;;;;;;;0.10;0.10;;;;;;;10.62;77.12;96266.03;6098175;23;20010;-91
2022/04/10 03:46:31;;;;;;;0.00;0.00;;;;;;;10.73;76.27;96274.03;6099354;23;20063;-91
2022/04/10 03:48:57;;;;;;;0.15;0.15;;;;;;;10.48;76.17;96269.84;6099652;23;20047;-92
2022/04/10 03:51:23;;;;;;;0.10;0.10;;;;;;;10.66;75.72;96281.72;6099377;23;20006;-91
2022/04/10 03:53:48;;;;;;;0.08;0.08;;;;;;;10.61;75.73;96265.19;6099267;23;20006;-90
2022/04/10 03:56:14;;;;;;;0.25;0.25;;;;;;;10.54;75.47;96250.63;6098989;23;20002;-90
2022/04/10 03:58:40;;;;;;;1.75;1.30;;;;;;;10.66;75.64;96267.47;6098477;23;20012;-90
2022/04/10 04:01:05;;;;;;;0.10;0.10;;;;;;;10.77;75.52;96284.34;6099004;23;20010;-89
2022/04/10 04:03:35;;;;;;;0.20;0.20;;;;;;;10.75;74.96;96280.94;6099778;23;20033;-89
2022/04/10 04:06:01;;;;;;;0.28;0.28;;;;;;;10.74;74.90;96281.91;6100811;23;20036;-91
2022/04/10 04:08:26;;;;;;;0.03;0.03;;;;;;;10.76;75.32;96292.50;6100114;23;20010;-91
2022/04/10 04:11:01;;;;;;;0.00;0.00;;;;;;;10.87;75.75;96322.72;6100757;23;20033;-91
2022/04/10 04:13:26;;;;;;;0.17;0.17;;;;;;;11.02;75.95;96338.47;6102776;23;20010;-91
2022/04/10 04:15:52;;;;;;;0.10;0.10;;;;;;;11.09;75.44;96316.44;6100103;23;20002;-90
2022/04/10 04:18:46;;;;;;;0.75;0.75;;;;;;;11.09;76.30;96303.06;6099754;23;20010;-91
2022/04/10 04:21:12;;;;;;;0.52;0.52;;;;;;;10.97;76.71;96297.88;6100458;23;20005;-91
2022/04/10 04:23:38;;;;;;;0.50;0.50;;;;;;;11.14;75.81;96300.84;6100234;23;20013;-92
2022/04/10 04:26:24;;;;;;;0.60;0.60;;;;;;;11.06;75.68;96294.44;6099879;23;20012;-91
2022/04/10 04:28:49;;;;;;;0.10;0.10;;;;;;;11.14;75.68;96318.72;6099507;23;20006;-90
2022/04/10 04:31:15;;;;;;;4.07;3.72;;;;;;;11.13;74.99;96301.84;6099453;23;20013;-90
2022/04/10 04:33:41;;;;;;;16.45;15.30;;;;;;;11.09;74.77;96278.13;6098261;23;20032;-91
2022/04/10 04:36:06;;;;;;;0.00;0.00;;;;;;;11.03;77.05;96297.38;6098532;23;20036;-90
2022/04/10 04:38:32;;;;;;;0.65;0.30;;;;;;;10.94;76.42;96295.47;6099371;23;20373;-91
2022/04/10 04:40:57;;;;;;;1.20;1.10;;;;;;;10.82;78.89;96292.84;6099847;23;20025;-90
2022/04/10 04:43:23;;;;;;;0.40;0.40;;;;;;;10.99;81.01;96323.53;6125582;22;20009;-90
2022/04/10 04:45:48;;;;;;;0.32;0.32;;;;;;;10.95;81.47;96313.22;6103241;23;20061;-90
2022/04/10 04:48:17;;;;;;;0.00;0.00;;;;;;;10.98;79.90;96287.06;6107255;23;19990;-89
2022/04/10 04:50:43;;;;;;;0.70;0.57;;;;;;;11.05;83.06;96293.56;6106181;23;20006;-89
2022/04/10 04:53:36;;;;;;;1.08;1.08;;;;;;;11.30;82.53;96319.13;6105962;23;20002;-89
2022/04/10 04:56:01;;;;;;;0.68;0.50;;;;;;;11.34;81.89;96310.72;6126759;22;20044;-91
2022/04/10 04:58:27;;;;;;;0.00;0.00;;;;;;;11.36;84.10;96318.59;6101382;23;20073;-76
2022/04/10 05:00:56;;;;;;;0.10;0.10;;;;;;;11.49;82.99;96313.91;6120714;23;20417;-76
2022/04/10 05:03:21;;;;;;;0.15;0.15;;;;;;;11.53;83.50;96325.22;6118633;23;20010;-76
2022/04/10 05:05:47;;;;;;;0.13;0.13;;;;;;;11.58;82.97;96306.91;6093934;23;20350;-76
2022/04/10 05:08:12;;;;;;;4.63;1.45;;;;;;;11.11;85.14;96318.97;6120545;23;20002;-76
2022/04/10 05:10:38;;;;;;;2.17;2.05;;;;;;;10.96;88.05;96312.22;6118285;23;20013;-76
2022/04/10 05:13:07;;;;;;;0.52;0.50;;;;;;;10.94;87.11;96323.06;6093817;23;20017;-76
2022/04/10 05:15:32;;;;;;;0.00;0.00;;;;;;;11.06;86.45;96327.41;6118233;23;20002;-76
2022/04/10 05:17:58;;;;;;;0.10;0.10;;;;;;;11.02;87.60;96325.94;6093861;23;20335;-75
2022/04/10 05:20:23;;;;;;;0.00;0.00;;;;;;;10.99;86.94;96318.19;6118342;23;20112;-75
2022/04/10 05:22:49;;;;;;;0.30;0.30;;;;;;;10.89;86.28;96323.44;6119755;23;20477;-76
2022/04/10 05:25:15;;;;;;;2.28;1.38;;;;;;;10.68;86.82;96310.97;6093932;23;20006;-76
2022/04/10 05:27:40;;;;;;;0.08;0.08;;;;;;;10.63;87.85;96323.88;6094232;23;20067;-76
2022/04/10 05:30:07;;;;;;;0.10;0.10;;;;;;;10.81;88.14;96325.91;6119290;23;20077;-76
2022/04/10 05:32:32;;;;;;;0.15;0.15;;;;;;;10.77;88.00;96327.13;6093713;23;20010;-75
2022/04/10 05:35:01;;;;;;;0.10;0.10;;;;;;;10.72;88.10;96336.50;6117791;23;20089;-77
2022/04/10 05:37:26;;;;;;;1.67;1.58;;;;;;;10.88;87.34;96347.66;6117830;23;20002;-76
2022/04/10 05:39:52;;;;;;;0.30;0.30;;;;;;;10.96;87.88;96355.03;6117806;23;20006;-75
2022/04/10 05:42:17;;;;;;;0.00;0.00;;;;;;;11.10;88.65;96352.94;6118249;23;20010;-74
2022/04/10 05:44:43;;;;;;;0.10;0.10;;;;;;;11.16;88.35;96362.28;6093936;23;20037;-74
2022/04/10 05:47:08;;;;;;;6.57;3.63;;;;;;;11.23;87.60;96368.78;6118937;23;20012;-75
2022/04/10 05:49:34;;;;;;;0.52;0.52;;;;;;;11.23;88.80;96377.66;6117850;23;20476;-75
2022/04/10 05:51:59;;;;;;;1.75;1.65;;;;;;;11.34;88.83;96376.78;6117517;23;20002;-75
2022/04/10 05:54:25;;;;;;;1.38;1.27;;;;;;;11.32;89.00;96376.91;6091769;23;20014;-75
2022/04/10 05:56:50;;;;;;;0.20;0.20;;;;;;;11.40;89.09;96377.13;6118546;23;20010;-82
2022/04/10 05:59:16;;;;;;;0.20;0.20;;;;;;;11.54;88.15;96385.81;6118240;23;20345;-83
2022/04/10 06:01:42;;;;;;;0.55;0.55;;;;;;;11.61;88.43;96381.66;6093668;23;20033;-78
2022/04/10 06:04:07;;;;;;;0.30;0.30;;;;;;;11.59;89.20;96375.56;6092210;23;20036;-77
2022/04/10 06:06:33;;;;;;;0.08;0.08;;;;;;;11.54;91.30;96385.81;6092527;23;20010;-78
2022/04/10 06:09:04;;;;;;;0.00;0.00;;;;;;;11.55;92.58;96390.19;6116475;23;20091;-74
2022/04/10 06:11:30;;;;;;;0.10;0.10;;;;;;;11.59;91.80;96388.97;6117143;23;20353;-77
2022/04/10 06:13:56;;;;;;;0.10;0.10;;;;;;;11.78;89.41;96407.91;6093764;23;20006;-80
2022/04/10 06:16:21;;;;;;;0.77;0.68;;;;;;;11.76;88.14;96404.47;6093684;23;20013;-76
2022/04/10 06:18:47;;;;;;;0.10;0.10;;;;;;;11.81;88.26;96411.13;6119101;22;20012;-75
2022/04/10 06:21:13;;;;;;;0.20;0.20;;;;;;;11.90;90.65;96418.38;6120565;23;20001;-87
2022/04/10 06:23:39;;;;;;;0.03;0.03;;;;;;;11.98;91.87;96423.13;6119366;23;20430;-83
2022/04/10 06:26:04;;;;;;;0.25;0.25;;;;;;;11.90;94.17;96425.59;6099014;23;20041;-80
2022/04/10 06:28:30;;;;;;;0.00;0.00;;;;;;;11.66;95.50;96422.31;6118547;23;20012;-78
2022/04/10 06:30:56;;;;;;;0.00;0.00;;;;;;;11.68;96.77;96431.03;6096922;23;20083;-86
2022/04/10 06:33:21;;;;;;;2.35;1.65;;;;;;;11.50;98.69;96417.38;6100788;23;20002;-87
2022/04/10 06:35:47;;;;;;;0.28;0.28;;;;;;;11.40;100.00;96406.59;6097520;23;20094;-85
2022/04/10 06:38:12;;;;;;;1.65;1.27;;;;;;;11.63;99.69;96436.78;6096885;23;20434;-87
2022/04/10 06:40:38;;;;;;;0.00;0.00;;;;;;;11.55;99.57;96435.72;6123357;22;20026;-84
2022/04/10 06:43:07;;;;;;;0.05;0.05;;;;;;;11.47;100.00;96439.06;6123435;23;20043;-85
2022/04/10 06:45:32;;;;;;;0.05;0.05;;;;;;;11.10;100.00;96422.50;6100038;23;20033;-85
2022/04/10 06:47:58;;;;;;;0.57;0.57;;;;;;;11.10;100.00;96430.53;6122480;22;20482;-84
2022/04/10 06:50:24;;;;;;;0.17;0.17;;;;;;;10.87;100.00;96435.06;6096418;23;20477;-84
2022/04/10 06:52:49;;;;;;;0.10;0.10;;;;;;;10.82;100.00;96455.16;6094195;23;20048;-85
2022/04/10 06:55:16;;;;;;;0.00;0.00;;;;;;;10.83;100.00;96457.69;6096518;23;20006;-86
2022/04/10 06:57:41;;;;;;;1.80;1.58;;;;;;;10.79;100.00;96458.94;6095809;23;20041;-86
2022/04/10 07:00:14;;;;;;;2.28;1.00;;;;;;;10.63;100.00;96465.59;6120803;23;20002;-85
2022/04/10 07:06:39;;;;;;;0.00;0.00;;;;;;;10.46;100.00;96482.16;6130066;23;20013;-88
2022/04/10 07:09:07;;;;;;;;;;;;;;;10.34;100.00;96490.13;6130387;23;20006;-88
2022/04/10 07:11:33;;;;;;;0.08;0.08;;;;;;;10.36;100.00;96492.69;6124494;23;19909;-87
2022/04/10 07:14:02;;;;;;;0.30;0.30;;;;;;;10.07;100.00;96449.50;6100612;23;20441;-86
2022/04/10 07:16:27;;;;;;;0.00;0.00;;;;;;;10.18;100.00;96468.22;6099937;23;20335;-87
2022/04/10 07:18:53;;;;;;;0.25;0.25;;;;;;;9.90;100.00;96441.94;6130927;23;20008;-86
2022/04/10 07:23:41;;;;;;;1.35;1.30;;;;;;;10.37;100.00;96501.56;6097403;23;20085;-87
2022/04/10 07:24:08;;;;;;;0.20;0.20;;;;;;;10.09;100.00;96492.97;6123155;23;20006;-87
2022/04/10 07:26:34;;;;;;;0.85;0.57;;;;;;;9.73;100.00;96490.44;6097739;23;20014;-76
2022/04/10 07:28:59;;;;;;;0.05;0.05;;;;;;;9.67;100.00;96488.22;6117635;23;20085;-75
2022/04/10 07:31:25;;;;;;;0.00;0.00;;;;;;;9.67;100.00;96482.88;6117300;23;20005;-78
2022/04/10 07:33:51;;;;;;;0.10;0.10;;;;;;;9.81;100.00;96501.41;6118211;23;20013;-77
2022/04/10 07:36:16;;;;;;;4.35;4.05;;;;;;;9.52;100.00;96492.03;6118421;23;20002;-84
2022/04/10 07:38:42;;;;;;;1.42;1.35;;;;;;;9.51;100.00;96503.69;6094066;23;20357;-78
2022/04/10 07:41:07;;;;;;;0.20;0.20;;;;;;;9.42;100.00;96504.38;6118020;23;20014;-77
2022/04/10 07:43:33;;;;;;;0.20;0.20;;;;;;;9.40;100.00;96495.63;6120152;23;20033;-86
2022/04/10 07:48:42;;;;;;;0.10;0.10;;;;;;;9.44;100.00;96486.44;6117446;23;20534;-76
2022/04/10 07:51:08;;;;;;;0.00;0.00;;;;;;;9.50;100.00;96491.31;6093262;23;20089;-74
2022/04/10 07:53:37;;;;;;;0.10;0.10;;;;;;;9.43;100.00;96501.59;6116988;23;20009;-82
2022/04/10 07:56:02;;;;;;;0.00;0.00;;;;;;;9.20;100.00;96481.94;6119662;23;20472;-76
2022/04/10 07:58:28;;;;;;;0.10;0.10;;;;;;;9.11;100.00;96485.28;6092774;23;20014;-74
2022/04/10 08:00:53;;;;;;;0.10;0.10;;;;;;;9.32;100.00;96498.84;6097386;23;20012;-75
2022/04/10 08:03:19;;;;;;;0.00;0.00;;;;;;;9.42;100.00;96488.34;6091877;23;20396;-80
2022/04/10 08:05:45;;;;;;;0.00;0.00;;;;;;;9.43;100.00;96490.91;6094321;23;20629;-80
2022/04/10 08:08:12;;;;;;;0.08;0.08;;;;;;;9.47;100.00;96496.88;6093642;23;20009;-76
2022/04/10 08:10:39;;;;;;;0.10;0.10;;;;;;;9.60;100.00;96501.19;6118657;23;20006;-76
2022/04/10 08:13:05;;;;;;;0.00;0.00;;;;;;;9.59;100.00;96496.81;6091825;23;20009;-77
2022/04/10 08:15:30;;;;;;;0.00;0.00;;;;;;;9.48;100.00;96477.22;6091061;23;20100;-76
2022/04/10 08:17:56;;;;;;;0.05;0.05;;;;;;;9.44;100.00;96491.78;6115200;23;20006;-76
2022/04/10 08:20:23;;;;;;;0.00;0.00;;;;;;;9.58;100.00;96504.94;6091022;23;20518;-76
2022/04/10 08:22:53;;;;;;;0.00;0.00;;;;;;;9.57;100.00;96508.56;6115168;23;20446;-76
2022/04/10 08:25:23;;;;;;;0.00;0.00;;;;;;;9.61;100.00;96504.69;6091806;23;20016;-76
2022/04/10 08:27:49;;;;;;;0.10;0.10;;;;;;;9.65;100.00;96495.50;6115629;23;20163;-75
2022/04/10 08:30:15;;;;;;;0.00;0.00;;;;;;;9.85;100.00;96499.31;6090831;23;20076;-75
2022/04/10 08:32:42;;;;;;;0.00;0.00;;;;;;;9.88;100.00;96502.63;6115770;23;20087;-75
2022/04/10 08:35:09;;;;;;;0.00;0.00;;;;;;;9.91;100.00;96497.03;6091286;23;20074;-76
2022/04/10 08:37:35;;;;;;;0.00;0.00;;;;;;;9.82;100.00;96492.41;6090994;23;20006;-75
2022/04/10 08:40:01;;;;;;;0.00;0.00;;;;;;;9.78;100.00;96494.44;6115081;23;20473;-74
2022/04/10 08:42:26;;;;;;;0.00;0.00;;;;;;;9.86;100.00;96487.69;6091174;23;20046;-77
2022/04/10 08:44:54;;;;;;;0.03;0.03;;;;;;;9.83;100.00;96502.13;6091389;23;20094;-79
2022/04/10 08:47:21;;;;;;;0.10;0.10;;;;;;;9.68;100.00;96495.28;6091300;23;20079;-75
2022/04/10 08:49:51;;;;;;;0.03;0.03;;;;;;;9.67;100.00;96510.44;6091024;23;20469;-75
2022/04/10 08:52:18;;;;;;;0.00;0.00;;;;;;;9.70;100.00;96502.19;6115125;23;20051;-76
2022/04/10 08:54:44;;;;;;;0.00;0.00;;;;;;;9.84;100.00;96501.16;6090881;23;20438;-76
2022/04/10 08:57:16;;;;;;;0.00;0.00;;;;;;;9.88;100.00;96497.28;6090800;23;20009;-74
2022/04/10 08:59:42;;;;;;;0.00;0.00;;;;;;;9.87;100.00;96506.28;6091699;23;20140;-76
2022/04/10 09:02:10;;;;;;;0.00;0.00;;;;;;;9.83;100.00;96504.81;6115122;23;20390;-76
2022/04/10 09:04:36;;;;;;;0.00;0.00;;;;;;;9.67;100.00;96493.56;6091538;23;20442;-78
2022/04/10 09:07:09;;;;;;;0.00;0.00;;;;;;;9.80;100.00;96521.06;6115541;23;20010;-76
2022/04/10 09:09:37;;;;;;;0.10;0.10;;;;;;;9.49;100.00;96521.63;6115388;23;20046;-82
2022/04/10 09:12:03;;;;;;;0.00;0.00;;;;;;;9.51;100.00;96522.38;6115460;23;20091;-76
2022/04/10 09:14:40;;;;;;;0.10;0.10;;;;;;;9.57;100.00;96513.91;6090836;23;20010;-75
2022/04/10 09:17:18;;;;;;;0.00;0.00;;;;;;;9.52;100.00;96524.06;6090574;23;20002;-76
2022/04/10 09:19:51;;;;;;;0.00;0.00;;;;;;;9.45;100.00;96518.34;6092333;23;20010;-84
2022/04/10 09:22:27;;;;;;;0.00;0.00;;;;;;;9.42;100.00;96526.56;6091996;23;20060;-80
2022/04/10 09:25:07;;;;;;;0.10;0.10;;;;;;;8.94;100.00;96538.16;6091421;23;20045;-77
2022/04/10 09:27:36;;;;;;;0.08;0.08;;;;;;;9.01;100.00;96532.25;6115100;23;20006;-74
2022/04/10 09:30:07;;;;;;;0.00;0.00;;;;;;;9.11;100.00;96532.44;6091631;23;20009;-75
2022/04/10 09:32:52;;;;;;;0.03;0.03;;;;;;;9.14;100.00;96532.22;6114825;23;20020;-75
2022/04/10 09:35:23;;;;;;;0.10;0.10;;;;;;;9.08;100.00;96538.84;6114955;23;20056;-74
2022/04/10 09:37:56;;;;;;;0.10;0.10;;;;;;;9.20;100.00;96548.63;6090780;23;20100;-75
2022/04/10 09:40:35;;;;;;;0.10;0.10;;;;;;;9.29;100.00;96563.13;6090661;23;20105;-76
2022/04/10 09:43:06;;;;;;;0.10;0.10;;;;;;;9.10;100.00;96563.63;6094218;23;20385;-78
2022/04/10 09:45:39;;;;;;;0.10;0.10;;;;;;;8.97;100.00;96564.59;6118649;23;20002;-78
2022/04/10 09:48:23;;;;;;;0.10;0.10;;;;;;;9.05;100.00;96562.22;6118617;22;20442;-77
2022/04/10 09:50:53;;;;;;;0.10;0.10;;;;;;;9.13;100.00;96565.22;6120484;23;20017;-76
2022/04/10 09:53:19;;;;;;;0.00;0.00;;;;;;;9.01;100.00;96558.91;6094700;23;20013;-77
2022/04/10 09:55:52;;;;;;;0.10;0.10;;;;;;;8.96;100.00;96561.06;6118272;23;20053;-75
2022/04/10 09:58:19;;;;;;;0.10;0.10;;;;;;;8.99;100.00;96570.66;6091506;23;20009;-77
2022/04/10 10:00:45;;;;;;;0.00;0.00;;;;;;;8.69;100.00;96555.03;6121034;23;20059;-77
2022/04/10 10:03:11;;;;;;;0.00;0.00;;;;;;;8.74;100.00;96560.06;6116257;23;20449;-78
2022/04/10 10:05:37;;;;;;;0.10;0.10;;;;;;;8.79;100.00;96573.91;6091256;23;20012;-79
2022/04/10 10:08:04;;;;;;;0.00;0.00;;;;;;;8.57;100.00;96564.75;6115912;23;20043;-81
2022/04/10 10:10:32;;;;;;;0.00;0.00;;;;;;;8.64;100.00;96567.84;6090965;23;20385;-78
2022/04/10 10:13:05;;;;;;;0.00;0.00;;;;;;;8.71;100.00;96569.09;6116451;23;20002;-83
2022/04/10 10:15:35;;;;;;;0.00;0.00;;;;;;;8.51;100.00;96573.16;6116539;23;20010;-80
2022/04/10 10:18:03;;;;;;;0.00;0.00;;;;;;;8.45;100.00;96578.06;6091158;23;20107;-79
2022/04/10 10:20:29;;;;;;;0.00;0.00;;;;;;;8.22;100.00;96571.59;6115420;23;20111;-79
2022/04/10 10:22:55;;;;;;;0.10;0.10;;;;;;;8.16;100.00;96585.34;6117060;23;20006;-76
2022/04/10 10:25:27;;;;;;;0.05;0.05;;;;;;;8.12;100.00;96573.22;6118654;23;20013;-78
2022/04/10 10:28:09;;;;;;;0.00;0.00;;;;;;;8.22;100.00;96579.59;6095889;23;20021;-78
2022/04/10 10:30:56;;;;;;;0.10;0.10;;;;;;;8.27;100.00;96573.97;6117307;23;20024;-78
2022/04/10 10:33:22;;;;;;;0.08;0.08;;;;;;;8.34;100.00;96575.25;6117356;22;20016;-75
2022/04/10 10:35:53;;;;;;;0.00;0.00;;;;;;;8.25;100.00;96574.06;6117801;23;20012;-78
2022/04/10 10:38:25;;;;;;;0.10;0.10;;;;;;;8.27;100.00;96576.63;6094752;23;20071;-77
2022/04/10 10:41:12;;;;;;;0.10;0.10;;;;;;;8.09;100.00;96568.91;6094372;23;20021;-77
2022/04/10 10:43:38;;;;;;;0.10;0.10;;;;;;;8.07;100.00;96580.63;6134976;23;20006;-79
2022/04/10 10:46:20;;;;;;;0.08;0.08;;;;;;;8.10;100.00;96575.97;6094752;23;20006;-78
2022/04/10 10:48:46;;;;;;;0.10;0.10;;;;;;;8.18;100.00;96576.28;6118806;23;20012;-77
2022/04/10 10:51:12;;;;;;;0.10;0.10;;;;;;;7.89;100.00;96577.41;6119373;23;20333;-77
2022/04/10 10:53:45;;;;;;;0.10;0.10;;;;;;;7.63;100.00;96562.31;6120188;23;20030;-77
2022/04/10 10:56:33;;;;;;;0.00;0.00;;;;;;;7.60;100.00;96570.50;6094922;23;20081;-77
2022/04/10 10:59:24;;;;;;;0.00;0.00;;;;;;;7.80;100.00;96570.03;6118843;23;20009;-77
2022/04/10 11:02:10;;;;;;;0.00;0.00;;;;;;;7.89;100.00;96572.09;6118080;23;20080;-74
2022/04/10 11:05:05;;;;;;;0.00;0.00;;;;;;;7.64;100.00;96567.53;6092459;23;20116;-77
2022/04/10 11:07:32;;;;;;;0.00;0.00;;;;;;;7.95;100.00;96573.47;6125798;23;20010;-76
2022/04/10 11:10:04;;;;;;;0.10;0.10;;;;;;;7.93;100.00;96568.28;6093052;23;20386;-76
2022/04/10 11:12:52;;;;;;;0.10;0.10;;;;;;;8.07;100.00;96554.00;6095198;23;20006;-78
2022/04/10 11:15:22;;;;;;;0.08;0.08;;;;;;;8.34;100.00;96561.94;6117187;22;20357;-76
2022/04/10 11:18:28;;;;;;;0.10;0.10;;;;;;;8.42;100.00;96548.97;6093388;23;20498;-78
2022/04/10 11:20:54;;;;;;;0.00;0.00;;;;;;;8.42;100.00;96555.16;6096395;23;20010;-85
2022/04/10 11:23:20;;;;;;;0.00;0.00;;;;;;;8.57;100.00;96550.56;6126472;22;20370;-86
2022/04/10 11:25:52;;;;;;;0.10;0.10;;;;;;;8.56;100.00;96546.19;6093955;23;20025;-79
2022/04/10 11:28:18;;;;;;;0.10;0.10;;;;;;;8.34;100.00;96552.16;6119324;23;20013;-77
2022/04/10 11:30:45;;;;;;;0.10;0.10;;;;;;;8.32;100.00;96553.22;6094363;23;20006;-77
2022/04/10 11:33:13;;;;;;;0.10;0.10;;;;;;;8.44;100.00;96550.56;6094760;23;20013;-79
2022/04/10 11:35:41;;;;;;;0.05;0.05;;;;;;;8.60;100.00;96556.53;6094687;23;20083;-76
2022/04/10 11:38:12;;;;;;;0.00;0.00;;;;;;;8.42;100.00;96541.84;6095730;23;20460;-82
2022/04/10 11:40:39;;;;;;;0.00;0.00;;;;;;;8.49;100.00;96544.94;6094496;23;20096;-80
2022/04/10 11:43:08;;;;;;;0.10;0.10;;;;;;;8.57;100.00;96547.91;6090768;23;20002;-88
2022/04/10 11:45:34;;;;;;;0.00;0.00;;;;;;;8.58;100.00;96554.94;6117927;23;20054;-84